Time;durP1;ratioP1;P1;durP2;ratioP2;P2;SDS_P1;SDS_P2;PMS_P1;PMS_P2;Temp;Humidity;BMP_temperature;BMP_pressure;BME280_temperature;BME280_humidity;BME280_pressure;Samples;Min_cycle;Max_cycle;Signal;HPM_P1;HPM_P2
2024/02/24 00:00:08;;;;;;;;;4.00;2.50;;;;;7.44;76.32;98910.59;5069219;28;46034;-66
2024/02/24 00:02:34;;;;;;;;;3.25;3.00;;;;;7.41;76.10;98910.72;5065884;27;46769;-68
2024/02/24 00:04:59;;;;;;;;;3.50;2.00;;;;;7.41;76.34;98914.16;5077606;27;65788;-68
2024/02/24 00:07:24;;;;;;;;;2.00;2.00;;;;;7.41;76.36;98918.53;5067847;27;63872;-67
2024/02/24 00:09:50;;;;;;;;;2.50;2.00;;;;;7.39;76.46;98920.34;5072467;27;45332;-66
2024/02/24 00:12:15;;;;;;;;;3.50;2.00;;;;;7.41;76.37;98915.94;5069379;27;53698;-68
2024/02/24 00:14:40;;;;;;;;;4.00;2.25;;;;;7.41;76.60;98918.53;5067114;28;45546;-68
2024/02/24 00:17:06;;;;;;;;;1.00;1.00;;;;;7.43;76.58;98929.72;5069724;28;60456;-67
2024/02/24 00:19:31;;;;;;;;;1.50;1.00;;;;;7.43;76.21;98932.31;5066214;27;68965;-66
2024/02/24 00:21:57;;;;;;;;;1.50;1.00;;;;;7.41;75.94;98928.94;5062455;27;61417;-67
2024/02/24 00:24:22;;;;;;;;;2.50;1.25;;;;;7.38;75.74;98932.53;5070238;28;45189;-68
2024/02/24 00:26:47;;;;;;;;;17.75;14.75;;;;;7.36;75.50;98930.88;5074105;28;50285;-68
2024/02/24 00:29:13;;;;;;;;;2.25;1.00;;;;;7.33;75.35;98931.00;5073542;27;72199;-68
2024/02/24 00:31:38;;;;;;;;;2.00;2.00;;;;;7.29;75.56;98940.72;5075527;27;64269;-68
2024/02/24 00:34:03;;;;;;;;;4.75;2.00;;;;;7.29;75.79;98932.91;5086000;27;45269;-68
2024/02/24 00:36:29;;;;;;;;;14.00;11.25;;;;;7.31;75.66;98940.66;5064427;28;45272;-67
2024/02/24 00:38:56;;;;;;;;;10.75;5.00;;;;;7.32;76.17;98935.38;5068785;28;74559;-68
2024/02/24 00:41:21;;;;;;;;;4.00;1.00;;;;;7.34;75.70;98943.13;5071440;27;62374;-68
2024/02/24 00:43:46;;;;;;;;;1.50;1.00;;;;;7.32;75.72;98948.41;5064558;27;45928;-68
2024/02/24 00:46:12;;;;;;;;;2.25;2.00;;;;;7.33;75.68;98941.41;5071722;27;45339;-68
2024/02/24 00:48:37;;;;;;;;;3.25;0.00;;;;;7.32;75.33;98940.59;5062193;27;67640;-67
2024/02/24 00:51:02;;;;;;;;;0.00;0.00;;;;;7.27;74.89;98944.31;5069246;28;55816;-67
2024/02/24 00:53:28;;;;;;;;;1.00;1.00;;;;;7.25;75.25;98946.13;5063647;28;64118;-67
2024/02/24 00:55:53;;;;;;;;;1.75;1.00;;;;;7.25;75.41;98946.13;5074791;28;45348;-68
2024/02/24 00:58:19;;;;;;;;;1.25;0.50;;;;;7.26;75.35;98945.19;5073107;28;46352;-68
2024/02/24 01:00:44;;;;;;;;;1.00;1.00;;;;;7.26;75.29;98955.59;5066719;27;72263;-67
2024/02/24 01:03:09;;;;;;;;;4.50;2.00;;;;;7.28;75.30;98958.97;5065106;27;48584;-67
2024/02/24 01:05:35;;;;;;;;;4.25;3.00;;;;;7.27;75.09;98960.75;5076161;27;72146;-68
2024/02/24 01:08:00;;;;;;;;;3.25;3.00;;;;;7.27;75.00;98957.31;5067272;28;46205;-67
2024/02/24 01:10:25;;;;;;;;;8.50;5.50;;;;;7.27;75.02;98957.31;5073077;27;45304;-67
2024/02/24 01:12:51;;;;;;;;;3.00;3.00;;;;;7.27;75.01;98959.91;5077905;27;56584;-67
2024/02/24 01:15:17;;;;;;;;;3.75;0.00;;;;;7.25;74.81;98957.38;5074167;27;45443;-66
2024/02/24 01:17:42;;;;;;;;;1.25;0.75;;;;;7.22;74.78;98962.69;5066349;28;45406;-67
2024/02/24 01:20:08;;;;;;;;;2.00;2.00;;;;;7.16;74.70;98963.78;5079117;27;45388;-67
2024/02/24 01:22:33;;;;;;;;;1.00;1.00;;;;;7.10;74.60;98968.41;5070932;27;45319;-66
2024/02/24 01:24:59;;;;;;;;;1.00;1.00;;;;;7.08;74.54;98975.44;5061441;28;45379;-67
2024/02/24 01:27:24;;;;;;;;;0.00;0.00;;;;;7.02;74.53;98979.97;5076831;27;45996;-66
2024/02/24 01:29:50;;;;;;;;;1.25;0.00;;;;;6.98;74.52;98983.63;5073541;27;45460;-66
2024/02/24 01:32:15;;;;;;;;;1.00;1.00;;;;;6.91;74.41;98991.72;5069098;27;45314;-67
2024/02/24 01:34:40;;;;;;;;;1.00;0.00;;;;;6.84;74.62;98991.97;5073444;27;46197;-67
2024/02/24 01:37:06;;;;;;;;;0.25;0.00;;;;;6.79;74.66;98993.91;5065347;27;70623;-68
2024/02/24 01:39:32;;;;;;;;;2.00;2.00;;;;;6.76;74.87;98991.41;5070080;27;45390;-67
2024/02/24 01:41:57;;;;;;;;;1.00;1.00;;;;;6.74;75.11;98990.63;5075714;27;45307;-66
2024/02/24 01:44:23;;;;;;;;;2.00;1.00;;;;;6.75;75.11;98996.69;5074400;27;49963;-67
2024/02/24 01:46:48;;;;;;;;;2.00;2.00;;;;;6.74;75.14;99003.63;5079149;27;76037;-67
2024/02/24 01:49:17;;;;;;;;;1.75;1.75;;;;;6.73;75.33;99009.75;5075439;27;45318;-67
2024/02/24 01:51:44;;;;;;;;;1.75;1.00;;;;;6.72;75.04;99007.22;5076717;27;45596;-67
2024/02/24 01:54:09;;;;;;;;;3.00;0.50;;;;;6.70;75.02;99014.22;5072362;28;46293;-66
2024/02/24 01:56:37;;;;;;;;;3.00;1.00;;;;;6.67;74.95;99022.13;5097086;27;75588;-66
2024/02/24 01:59:03;;;;;;;;;1.00;1.00;;;;;6.62;74.91;99023.16;5069942;27;45455;-66
2024/02/24 02:01:28;;;;;;;;;3.00;2.25;;;;;6.56;74.89;99015.59;5078126;27;45391;-68
2024/02/24 02:03:54;;;;;;;;;5.75;1.00;;;;;6.53;74.93;99013.09;5073676;27;45751;-67
2024/02/24 02:06:21;;;;;;;;;3.75;2.00;;;;;6.49;74.77;99021.09;5072314;27;45563;-67
2024/02/24 02:08:47;;;;;;;;;2.50;1.00;;;;;6.45;74.83;99022.94;5071899;27;45367;-66
2024/02/24 02:11:12;;;;;;;;;1.00;1.00;;;;;6.41;74.72;99016.16;5071416;27;68510;-65
2024/02/24 02:13:37;;;;;;;;;1.50;1.50;;;;;6.38;74.54;99026.69;5070790;27;45507;-66
2024/02/24 02:16:03;;;;;;;;;0.00;0.00;;;;;6.34;74.70;99025.97;5067685;27;67114;-67
2024/02/24 02:18:28;;;;;;;;;3.50;1.00;;;;;6.31;74.56;99028.66;5065840;27;45482;-65
2024/02/24 02:20:55;;;;;;;;;1.75;1.00;;;;;6.31;74.57;99035.63;5074131;27;68353;-66
2024/02/24 02:23:20;;;;;;;;;1.50;0.25;;;;;6.26;74.61;99026.22;5070551;27;45808;-67
2024/02/24 02:25:46;;;;;;;;;1.00;1.00;;;;;6.26;74.61;99021.03;5067029;28;74306;-66
2024/02/24 02:28:11;;;;;;;;;1.75;0.00;;;;;6.26;74.53;99026.22;5079655;27;45369;-66
2024/02/24 02:30:36;;;;;;;;;2.00;2.00;;;;;6.25;73.99;99024.53;5073746;28;69356;-66
2024/02/24 02:33:03;;;;;;;;;1.50;1.00;;;;;6.23;74.20;99023.75;5065393;27;45300;-67
2024/02/24 02:35:30;;;;;;;;;0.00;0.00;;;;;6.23;74.18;99030.69;5069255;27;45362;-67
2024/02/24 02:37:55;;;;;;;;;2.00;1.00;;;;;6.19;73.85;99029.94;5074467;27;45359;-67
2024/02/24 02:40:20;;;;;;;;;0.00;0.00;;;;;6.18;73.90;99024.81;5072357;27;69324;-66
2024/02/24 02:42:46;;;;;;;;;0.00;0.00;;;;;6.14;73.67;99025.81;5072002;27;45244;-67
2024/02/24 02:45:11;;;;;;;;;1.00;0.00;;;;;6.10;73.61;99025.09;5069504;27;74539;-66
2024/02/24 02:47:37;;;;;;;;;1.00;1.00;;;;;6.06;73.50;99026.97;5077178;27;45538;-65
2024/02/24 02:50:04;;;;;;;;;2.00;0.00;;;;;6.03;73.38;99021.88;5067458;27;45445;-66
2024/02/24 02:52:29;;;;;;;;;2.50;0.00;;;;;6.00;73.61;99018.53;5069208;27;45604;-67
2024/02/24 02:54:55;;;;;;;;;1.00;1.00;;;;;6.01;73.69;99033.22;5069356;28;45788;-66
2024/02/24 02:57:20;;;;;;;;;0.75;0.50;;;;;5.98;73.52;99031.56;5067314;27;71537;-67
2024/02/24 02:59:45;;;;;;;;;2.75;1.00;;;;;5.99;73.68;99028.09;5068394;27;65713;-67
2024/02/24 03:02:11;;;;;;;;;2.00;0.00;;;;;5.99;73.94;99038.47;5076447;27;45350;-67
2024/02/24 03:04:36;;;;;;;;;0.00;0.00;;;;;5.98;73.71;99038.50;5065986;27;74540;-66
2024/02/24 03:07:01;;;;;;;;;1.00;1.00;;;;;6.00;73.58;99044.50;5067183;27;71643;-66
2024/02/24 03:09:27;;;;;;;;;1.00;1.00;;;;;6.00;73.86;99034.97;5067290;28;45583;-67
2024/02/24 03:11:52;;;;;;;;;0.00;0.00;;;;;5.99;73.65;99043.66;5065469;28;54505;-66
2024/02/24 03:14:17;;;;;;;;;2.00;0.50;;;;;5.98;73.70;99039.34;5064724;27;46375;-66
2024/02/24 03:16:43;;;;;;;;;0.50;0.00;;;;;5.99;73.79;99045.41;5067598;28;64859;-66
2024/02/24 03:19:08;;;;;;;;;0.00;0.00;;;;;5.98;73.69;99052.34;5071697;27;45450;-66
2024/02/24 03:21:34;;;;;;;;;2.00;0.50;;;;;5.98;73.74;99054.94;5081203;27;45516;-66
2024/02/24 03:24:00;;;;;;;;;0.50;0.00;;;;;5.97;73.55;99055.00;5076670;27;73851;-66
2024/02/24 03:26:25;;;;;;;;;2.00;0.00;;;;;5.94;73.58;99057.69;5069573;27;45494;-66
2024/02/24 03:28:51;;;;;;;;;0.50;0.50;;;;;5.92;73.63;99057.72;5074854;28;54577;-66
2024/02/24 03:31:16;;;;;;;;;0.00;0.00;;;;;5.92;73.92;99062.09;5063580;27;45313;-66
2024/02/24 03:33:42;;;;;;;;;0.25;0.00;;;;;5.90;73.83;99059.53;5073485;27;72419;-66
2024/02/24 03:36:14;;;;;;;;;1.00;0.00;;;;;5.86;74.00;99058.78;5065772;27;45444;-66
2024/02/24 03:38:40;;;;;;;;;0.00;0.00;;;;;5.90;74.12;99062.13;5073318;27;45378;-66
2024/02/24 03:41:05;;;;;;;;;1.00;0.50;;;;;5.93;74.48;99062.00;5080068;27;45399;-67
2024/02/24 03:43:31;;;;;;;;;2.00;1.00;;;;;5.94;74.47;99055.09;5075747;27;57378;-66
2024/02/24 03:45:56;;;;;;;;;2.25;0.50;;;;;5.94;74.45;99060.28;5062252;27;72560;-65
2024/02/24 03:48:22;;;;;;;;;2.75;0.00;;;;;5.90;74.58;99051.75;5071718;27;45415;-65
2024/02/24 03:50:47;;;;;;;;;2.00;0.25;;;;;5.88;74.79;99053.56;5063209;28;45350;-65
2024/02/24 03:53:14;;;;;;;;;1.25;1.00;;;;;5.85;74.69;99062.28;5070358;27;45433;-66
2024/02/24 03:55:39;;;;;;;;;1.00;1.00;;;;;5.84;74.85;99055.41;5076267;28;61388;-66
2024/02/24 03:58:04;;;;;;;;;3.50;1.00;;;;;5.83;75.01;99065.84;5075481;27;67187;-66
2024/02/24 04:00:34;;;;;;;;;1.00;1.00;;;;;5.81;74.98;99071.09;5063078;27;45435;-66
2024/02/24 04:03:00;;;;;;;;;1.00;1.00;;;;;5.81;74.97;99075.44;5073024;27;46256;-65
2024/02/24 04:05:25;;;;;;;;;0.25;0.25;;;;;5.79;75.22;99074.63;5068703;28;45228;-66
2024/02/24 04:07:50;;;;;;;;;1.00;1.00;;;;;5.77;74.87;99081.59;5066549;27;69263;-66
2024/02/24 04:10:15;;;;;;;;;1.25;0.25;;;;;5.79;75.07;99085.00;5060807;28;73262;-67
2024/02/24 04:12:41;;;;;;;;;4.00;2.25;;;;;5.77;75.05;99079.00;5065994;27;66406;-66
2024/02/24 04:15:06;;;;;;;;;2.00;2.00;;;;;5.77;74.96;99081.59;5077716;27;60170;-66
2024/02/24 04:17:32;;;;;;;;;1.00;1.00;;;;;5.77;74.93;99082.47;5072687;27;45220;-65
2024/02/24 04:19:57;;;;;;;;;1.00;1.00;;;;;5.71;74.82;99088.69;5069528;27;64003;-66
2024/02/24 04:22:22;;;;;;;;;1.00;1.00;;;;;5.73;75.21;99099.03;5059890;28;58519;-65
2024/02/24 04:24:47;;;;;;;;;0.00;0.00;;;;;5.75;74.98;99106.78;5066858;27;45396;-67
2024/02/24 04:27:13;;;;;;;;;1.00;1.00;;;;;5.73;74.90;99101.63;5070255;27;69398;-66
2024/02/24 04:29:38;;;;;;;;;2.00;1.00;;;;;5.74;74.86;99107.66;5077569;27;73237;-66
2024/02/24 04:32:03;;;;;;;;;1.75;1.00;;;;;5.71;75.13;99106.03;5063086;27;69275;-66
2024/02/24 04:34:29;;;;;;;;;5.00;1.00;;;;;5.71;74.94;99104.28;5075276;28;45226;-66
2024/02/24 04:36:54;;;;;;;;;2.00;0.00;;;;;5.70;75.00;99110.38;5074341;27;53733;-66
2024/02/24 04:39:20;;;;;;;;;1.50;0.00;;;;;5.71;75.02;99116.41;5077050;27;72494;-67
2024/02/24 04:41:46;;;;;;;;;3.50;1.75;;;;;5.69;75.00;99126.84;5071397;27;45559;-66
2024/02/24 04:44:11;;;;;;;;;1.00;1.00;;;;;5.68;74.74;99122.56;5063768;28;73346;-66
2024/02/24 04:46:38;;;;;;;;;3.00;1.00;;;;;5.68;74.89;99132.94;5060667;28;45392;-66
2024/02/24 04:49:03;;;;;;;;;1.00;1.00;;;;;5.69;74.87;99131.19;5065799;27;45446;-67
2024/02/24 04:51:29;;;;;;;;;1.50;1.00;;;;;5.69;74.95;99134.63;5069287;27;45537;-66
2024/02/24 04:53:54;;;;;;;;;2.00;1.00;;;;;5.69;74.79;99126.84;5071436;27;45378;-65
2024/02/24 04:56:19;;;;;;;;;1.75;0.00;;;;;5.69;74.68;99132.03;5063323;27;49376;-65
2024/02/24 04:58:45;;;;;;;;;3.75;1.00;;;;;5.68;74.96;99138.13;5064027;27;71977;-66
2024/02/24 05:01:10;;;;;;;;;1.25;0.25;;;;;5.67;74.90;99141.63;5075266;27;72278;-65
2024/02/24 05:03:36;;;;;;;;;2.75;1.00;;;;;5.66;75.06;99145.09;5072042;27;45686;-65
2024/02/24 05:06:01;;;;;;;;;2.75;1.00;;;;;5.66;74.93;99142.50;5062474;28;45249;-65
2024/02/24 05:08:26;;;;;;;;;3.00;1.50;;;;;5.66;75.03;99144.25;5059964;28;45264;-66
2024/02/24 05:10:52;;;;;;;;;3.25;1.00;;;;;5.65;75.16;99142.59;5071012;27;46918;-65
2024/02/24 05:13:17;;;;;;;;;1.00;1.00;;;;;5.66;75.27;99149.44;5071316;27;71971;-65
2024/02/24 05:15:43;;;;;;;;;3.00;1.00;;;;;5.67;75.22;99157.19;5077262;27;69342;-65
2024/02/24 05:18:08;;;;;;;;;1.25;1.25;;;;;5.68;75.41;99174.47;5072614;27;45400;-65
2024/02/24 05:20:34;;;;;;;;;1.00;1.00;;;;;5.74;75.66;99172.53;5066415;28;68579;-65
2024/02/24 05:23:01;;;;;;;;;0.75;0.75;;;;;5.82;75.43;99173.16;5078600;27;45718;-66
2024/02/24 05:25:26;;;;;;;;;1.50;1.00;;;;;5.85;75.27;99176.50;5072393;27;45212;-66
2024/02/24 05:27:53;;;;;;;;;2.25;2.00;;;;;5.87;75.33;99177.28;5073062;27;72702;-66
2024/02/24 05:30:18;;;;;;;;;1.50;1.00;;;;;5.94;75.55;99175.34;5070054;27;46084;-66
2024/02/24 05:32:44;;;;;;;;;2.25;1.00;;;;;6.00;75.54;99182.13;5066345;27;45327;-65
2024/02/24 05:35:09;;;;;;;;;3.00;0.50;;;;;6.03;75.18;99185.47;5071432;27;45673;-66
2024/02/24 05:37:34;;;;;;;;;3.00;1.75;;;;;6.07;75.13;99187.06;5068059;27;45378;-66
2024/02/24 05:40:00;;;;;;;;;1.50;1.00;;;;;6.11;75.26;99193.00;5079390;27;67753;-66
2024/02/24 05:42:26;;;;;;;;;2.75;1.00;;;;;6.14;75.19;99192.88;5074642;27;45287;-66
2024/02/24 05:44:51;;;;;;;;;3.00;1.00;;;;;6.17;75.15;99187.59;5073283;27;45287;-65
2024/02/24 05:47:16;;;;;;;;;4.50;1.50;;;;;6.19;75.12;99182.34;5073698;27;70797;-65
2024/02/24 05:49:42;;;;;;;;;3.00;1.00;;;;;6.23;74.83;99184.81;5074453;28;46129;-66
2024/02/24 05:52:08;;;;;;;;;2.25;1.75;;;;;6.23;74.61;99182.22;5064719;27;45236;-66
2024/02/24 05:54:33;;;;;;;;;1.75;1.75;;;;;6.23;74.79;99196.91;5072503;27;45658;-66
2024/02/24 05:56:58;;;;;;;;;2.50;2.00;;;;;6.25;74.69;99196.00;5080625;27;60264;-65
2024/02/24 05:59:24;;;;;;;;;4.50;2.00;;;;;6.26;74.57;99194.22;5075972;27;45499;-66
2024/02/24 06:01:49;;;;;;;;;2.00;2.00;;;;;6.24;74.48;99198.63;5068579;27;45157;-65
2024/02/24 06:04:17;;;;;;;;;2.00;2.00;;;;;6.27;74.69;99199.38;5067453;27;69857;-65
2024/02/24 06:06:46;;;;;;;;;3.00;2.00;;;;;6.29;75.16;99201.09;5079176;27;45446;-65
2024/02/24 06:09:11;;;;;;;;;2.00;2.00;;;;;6.29;74.91;99207.13;5073864;28;46236;-65
2024/02/24 06:11:36;;;;;;;;;3.00;1.25;;;;;6.23;74.76;99205.59;5067942;27;45292;-65
2024/02/24 06:14:02;;;;;;;;;3.00;1.25;;;;;6.29;74.55;99214.06;5067289;27;45138;-66
2024/02/24 06:16:27;;;;;;;;;3.00;2.00;;;;;6.25;74.63;99221.97;5068830;27;70591;-65
2024/02/24 06:18:52;;;;;;;;;5.00;2.50;;;;;6.24;74.53;99216.81;5075508;27;74035;-65
2024/02/24 06:21:18;;;;;;;;;3.25;1.00;;;;;6.23;74.33;99222.91;5067357;27;72210;-65
2024/02/24 06:23:43;;;;;;;;;2.75;1.75;;;;;6.18;74.29;99225.66;5074989;27;45296;-65
2024/02/24 06:26:08;;;;;;;;;2.00;1.00;;;;;6.13;74.49;99222.38;5070577;28;45643;-66
2024/02/24 06:28:35;;;;;;;;;4.00;2.00;;;;;6.10;74.42;99225.06;5075952;27;63987;-66
2024/02/24 06:31:00;;;;;;;;;2.00;2.00;;;;;6.03;74.56;99226.16;5072706;27;45347;-66
2024/02/24 06:33:26;;;;;;;;;1.25;1.25;;;;;5.98;74.74;99236.69;5078596;27;45497;-65
2024/02/24 06:35:51;;;;;;;;;1.00;1.00;;;;;5.95;74.56;99235.91;5066447;27;70158;-66
2024/02/24 06:38:17;;;;;;;;;1.50;1.50;;;;;5.97;74.96;99250.59;5070261;27;55187;-66
2024/02/24 06:40:42;;;;;;;;;3.50;1.25;;;;;5.98;75.09;99257.47;5074547;27;45493;-66
2024/02/24 06:43:07;;;;;;;;;2.00;1.00;;;;;6.02;75.02;99263.41;5069078;28;65850;-66
2024/02/24 06:45:32;;;;;;;;;3.00;1.50;;;;;6.04;74.77;99261.63;5062766;28;69100;-66
2024/02/24 06:47:58;;;;;;;;;3.50;2.00;;;;;6.04;75.01;99264.22;5080557;27;45498;-66
2024/02/24 06:50:23;;;;;;;;;2.00;1.75;;;;;6.09;74.93;99272.69;5079473;27;69766;-66
2024/02/24 06:52:48;;;;;;;;;3.25;1.50;;;;;6.11;74.81;99280.44;5066889;27;69392;-65
2024/02/24 06:55:14;;;;;;;;;2.50;1.25;;;;;6.14;74.95;99281.19;5074183;27;72039;-65
2024/02/24 06:57:39;;;;;;;;;1.50;1.50;;;;;6.20;74.66;99290.56;5067624;27;50852;-66
2024/02/24 07:00:05;;;;;;;;;2.00;2.00;;;;;6.19;74.32;99289.69;5070213;27;45418;-65
2024/02/24 07:02:30;;;;;;;;;2.75;1.00;;;;;6.23;74.30;99296.50;5074572;27;45361;-66
2024/02/24 07:04:56;;;;;;;;;3.50;1.25;;;;;6.23;73.96;99299.09;5070666;27;63818;-66
2024/02/24 07:07:21;;;;;;;;;3.00;1.25;;;;;6.24;73.82;99305.13;5060872;28;48487;-65
2024/02/24 07:09:47;;;;;;;;;2.00;1.00;;;;;6.23;73.85;99299.09;5076405;27;71777;-65
2024/02/24 07:12:12;;;;;;;;;2.75;2.00;;;;;6.25;73.68;99305.09;5072406;27;45402;-65
2024/02/24 07:14:37;;;;;;;;;2.00;2.00;;;;;6.30;73.89;99306.69;5070035;27;72635;-66
2024/02/24 07:17:03;;;;;;;;;5.50;1.00;;;;;6.33;74.01;99309.19;5069878;28;73566;-66
2024/02/24 07:19:29;;;;;;;;;3.00;1.00;;;;;6.36;73.67;99314.28;5068756;28;45311;-65
2024/02/24 07:21:54;;;;;;;;;3.75;2.00;;;;;6.35;73.48;99313.44;5070373;27;45608;-66
2024/02/24 07:24:19;;;;;;;;;2.25;2.00;;;;;6.35;73.55;99308.22;5064712;27;45313;-65
2024/02/24 07:26:45;;;;;;;;;1.25;1.00;;;;;6.37;73.38;99316.81;5070175;27;45263;-66
2024/02/24 07:29:11;;;;;;;;;3.75;2.00;;;;;6.41;73.47;99310.63;5065691;27;45458;-66
2024/02/24 07:31:37;;;;;;;;;2.00;1.50;;;;;6.45;73.49;99309.63;5075375;28;45482;-65
2024/02/24 07:34:02;;;;;;;;;2.50;1.00;;;;;6.50;73.40;99316.41;5075044;27;45508;-66
2024/02/24 07:36:29;;;;;;;;;2.50;1.00;;;;;6.52;73.29;99310.28;5077947;27;45334;-66
2024/02/24 07:38:58;;;;;;;;;8.00;2.00;;;;;6.55;73.23;99317.13;5073847;27;45821;-66
2024/02/24 07:41:24;;;;;;;;;7.00;2.25;;;;;6.59;73.20;99324.78;5073068;28;45634;-65
2024/02/24 07:43:50;;;;;;;;;2.50;1.25;;;;;6.65;72.91;99321.94;5076403;27;67377;-65
2024/02/24 07:46:27;;;;;;;;;3.75;1.75;;;;;6.70;72.92;99320.97;5073785;28;46413;-65
2024/02/24 07:48:56;;;;;;;;;2.00;1.00;;;;;6.71;72.78;99328.72;5064791;28;45366;-64
2024/02/24 07:51:22;;;;;;;;;0.75;0.50;;;;;6.72;72.38;99329.56;5081682;27;45280;-65
2024/02/24 07:53:47;;;;;;;;;2.50;1.50;;;;;6.66;72.20;99330.63;5076344;27;51172;-65
2024/02/24 07:56:12;;;;;;;;;2.00;1.00;;;;;6.63;72.26;99335.91;5064429;27;75388;-65
2024/02/24 07:58:38;;;;;;;;;1.00;1.00;;;;;6.60;72.31;99341.22;5075662;27;74752;-66
2024/02/24 08:01:03;;;;;;;;;2.00;1.25;;;;;6.62;72.40;99344.59;5064152;27;67213;-66
2024/02/24 08:03:28;;;;;;;;;3.25;1.00;;;;;6.63;72.29;99344.56;5075062;27;45392;-65
2024/02/24 08:05:54;;;;;;;;;2.50;1.50;;;;;6.56;72.02;99335.25;5077443;28;46084;-65
2024/02/24 08:08:19;;;;;;;;;1.75;1.75;;;;;6.74;72.30;99357.19;5073473;27;73343;-66
2024/02/24 08:10:45;;;;;;;;;3.50;2.00;;;;;6.82;72.11;99356.94;5066340;28;45421;-65
2024/02/24 08:13:10;;;;;;;;;1.00;1.00;;;;;6.81;71.90;99365.63;5075357;28;72934;-65
2024/02/24 08:15:35;;;;;;;;;3.75;1.00;;;;;6.83;71.66;99361.22;5066594;28;74294;-66
2024/02/24 08:18:01;;;;;;;;;2.50;1.25;;;;;6.83;71.47;99369.91;5069423;28;73228;-66
2024/02/24 08:20:26;;;;;;;;;1.00;1.00;;;;;6.81;71.65;99371.69;5075372;28;45379;-66
2024/02/24 08:22:52;;;;;;;;;2.00;2.00;;;;;6.81;71.63;99373.44;5075956;28;73382;-65
2024/02/24 08:25:17;;;;;;;;;3.00;1.75;;;;;6.84;71.52;99370.75;5066235;28;45949;-65
2024/02/24 08:27:43;;;;;;;;;2.50;2.00;;;;;6.88;71.49;99372.34;5072298;28;45283;-64
2024/02/24 08:30:08;;;;;;;;;3.50;1.00;;;;;6.92;71.42;99375.69;5067415;28;68997;-65
2024/02/24 08:32:34;;;;;;;;;3.00;1.00;;;;;6.93;71.17;99382.59;5062879;27;45342;-65
2024/02/24 08:34:59;;;;;;;;;1.00;1.00;;;;;6.95;71.14;99389.44;5072182;28;76032;-65
2024/02/24 08:37:24;;;;;;;;;2.25;0.50;;;;;6.92;70.93;99384.31;5062661;28;71358;-65
2024/02/24 08:39:50;;;;;;;;;1.00;1.00;;;;;6.90;70.88;99388.72;5062775;28;45514;-65
2024/02/24 08:42:15;;;;;;;;;1.00;0.50;;;;;6.91;71.22;99403.44;5071340;28;45331;-70
2024/02/24 08:44:40;;;;;;;;;1.25;1.00;;;;;6.93;71.05;99391.22;5071187;28;45406;-68
2024/02/24 08:47:06;;;;;;;;;2.00;1.00;;;;;6.96;70.93;99409.34;5058216;28;73152;-66
2024/02/24 08:49:31;;;;;;;;;1.00;1.00;;;;;6.98;70.87;99410.13;5058900;28;65673;-69
2024/02/24 08:51:56;;;;;;;;;5.25;2.00;;;;;7.00;71.11;99413.53;5063613;28;73255;-67
2024/02/24 08:54:22;;;;;;;;;2.25;1.50;;;;;7.07;71.06;99408.13;5065116;28;63768;-69
2024/02/24 08:56:47;;;;;;;;;1.75;1.00;;;;;7.04;70.80;99407.31;5063420;27;45313;-64
2024/02/24 08:59:13;;;;;;;;;3.25;2.00;;;;;7.03;70.94;99408.22;5076127;28;45342;-64
2024/02/24 09:01:38;;;;;;;;;1.50;1.50;;;;;7.02;70.66;99410.88;5064125;28;72248;-65
2024/02/24 09:04:03;;;;;;;;;3.00;1.25;;;;;6.93;70.62;99419.00;5069178;28;47151;-64
2024/02/24 09:06:31;;;;;;;;;2.00;2.00;;;;;6.86;70.79;99412.31;5072098;28;45350;-64
2024/02/24 09:08:56;;;;;;;;;0.75;0.75;;;;;6.87;70.95;99419.19;5059983;28;45154;-64
2024/02/24 09:11:21;;;;;;;;;1.75;1.75;;;;;6.89;71.12;99419.97;5060914;28;45405;-64
2024/02/24 09:13:47;;;;;;;;;1.00;1.00;;;;;6.87;71.17;99419.19;5060744;28;71164;-64
2024/02/24 09:16:16;;;;;;;;;2.00;2.00;;;;;6.87;71.24;99421.78;5080811;27;45389;-63
2024/02/24 09:18:41;;;;;;;;;3.00;1.00;;;;;6.92;71.29;99425.09;5068426;28;45353;-63
2024/02/24 09:21:10;;;;;;;;;4.00;1.75;;;;;6.93;71.06;99427.66;5064856;27;73258;-63
2024/02/24 09:23:35;;;;;;;;;1.00;1.00;;;;;7.00;70.93;99431.75;5067012;28;75575;-63
2024/02/24 09:26:02;;;;;;;;;2.75;2.50;;;;;7.08;71.05;99438.44;5063211;28;72872;-64
2024/02/24 09:28:27;;;;;;;;;2.25;2.00;;;;;7.15;71.17;99443.41;5066318;28;45542;-66
2024/02/24 09:30:52;;;;;;;;;5.25;1.75;;;;;7.45;71.37;99434.56;5074327;28;73285;-64
2024/02/24 09:33:18;;;;;;;;;2.75;1.00;;;;;7.83;70.89;99442.78;5068200;28;45953;-67
2024/02/24 09:35:43;;;;;;;;;3.00;1.00;;;;;8.04;69.88;99454.13;5072237;28;45260;-66
2024/02/24 09:38:08;;;;;;;;;1.75;0.25;;;;;7.98;69.28;99444.81;5060274;28;69254;-65
2024/02/24 09:40:34;;;;;;;;;3.00;2.50;;;;;7.90;69.18;99449.47;5062694;28;45235;-67
2024/02/24 09:43:03;;;;;;;;;2.50;2.00;;;;;7.84;69.23;99460.09;5073979;28;45800;-64
2024/02/24 09:45:34;;;;;;;;;2.00;1.00;;;;;7.82;69.24;99462.75;5071110;28;45760;-64
2024/02/24 09:48:03;;;;;;;;;3.25;2.00;;;;;7.83;69.27;99459.25;5071801;28;45371;-64
2024/02/24 09:50:28;;;;;;;;;3.00;2.00;;;;;7.78;68.95;99462.00;5065112;27;45229;-65
2024/02/24 09:52:53;;;;;;;;;4.00;2.50;;;;;7.87;69.24;99467.81;5067710;28;46681;-65
2024/02/24 09:55:19;;;;;;;;;4.75;4.00;;;;;7.96;69.13;99467.47;5069594;28;45291;-66
2024/02/24 09:57:45;;;;;;;;;2.75;2.00;;;;;8.04;68.83;99469.78;5061011;28;55098;-63
2024/02/24 10:00:11;;;;;;;;;4.00;3.00;;;;;8.11;68.57;99460.81;5071699;28;45479;-63
2024/02/24 10:02:36;;;;;;;;;4.50;3.00;;;;;8.15;68.40;99471.09;5068930;27;46597;-64
2024/02/24 10:05:02;;;;;;;;;2.75;1.25;;;;;8.16;68.21;99472.78;5066240;28;45467;-64
2024/02/24 10:07:29;;;;;;;;;3.25;1.00;;;;;8.21;68.49;99469.16;5068562;28;45292;-63
2024/02/24 10:09:55;;;;;;;;;3.25;1.00;;;;;8.23;67.51;99480.38;5073223;28;45290;-64
2024/02/24 10:12:20;;;;;;;;;2.75;2.75;;;;;8.22;67.74;99476.09;5079240;28;46215;-64
2024/02/24 10:14:45;;;;;;;;;4.25;2.00;;;;;8.26;67.47;99483.72;5069467;28;72993;-63
2024/02/24 10:17:11;;;;;;;;;2.00;2.00;;;;;8.29;67.43;99478.38;5075647;28;71245;-63
2024/02/24 10:19:36;;;;;;;;;3.75;1.00;;;;;8.31;67.08;99489.59;5064875;28;45505;-62
2024/02/24 10:22:04;;;;;;;;;1.25;1.00;;;;;8.33;67.35;99486.94;5065022;28;75505;-63
2024/02/24 10:24:30;;;;;;;;;2.00;2.00;;;;;8.28;67.16;99484.50;5072880;28;45781;-63
2024/02/24 10:26:55;;;;;;;;;1.50;1.50;;;;;8.32;67.20;99487.84;5075728;28;45304;-62
2024/02/24 10:29:27;;;;;;;;;5.00;3.00;;;;;8.34;66.85;99484.28;5055415;28;45224;-62
2024/02/24 10:31:52;;;;;;;;;3.50;1.50;;;;;8.41;67.11;99497.06;5061199;28;45343;-62
2024/02/24 10:34:18;;;;;;;;;2.00;2.00;;;;;8.49;66.65;99492.44;5065634;28;50469;-63
2024/02/24 10:36:44;;;;;;;;;3.25;1.50;;;;;8.61;66.42;99493.75;5073579;28;67123;-63
2024/02/24 10:39:09;;;;;;;;;4.25;1.25;;;;;8.69;66.62;99492.53;5072750;28;69952;-63
2024/02/24 10:41:35;;;;;;;;;2.50;1.25;;;;;8.80;66.26;99492.13;5070032;28;73389;-63
2024/02/24 10:44:02;;;;;;;;;2.00;2.00;;;;;8.88;66.23;99489.19;5062909;28;70331;-63
2024/02/24 10:46:28;;;;;;;;;2.00;2.00;;;;;8.99;65.77;99492.19;5060958;28;45314;-63
2024/02/24 10:48:53;;;;;;;;;1.50;1.50;;;;;9.08;65.27;99490.97;5071853;28;45371;-64
2024/02/24 10:51:20;;;;;;;;;2.25;2.25;;;;;9.16;65.24;99494.13;5064610;27;45972;-63
2024/02/24 10:53:50;;;;;;;;;2.00;2.00;;;;;9.29;65.17;99491.84;5070001;28;45877;-65
2024/02/24 10:56:18;;;;;;;;;2.75;2.00;;;;;9.39;65.14;99494.94;5076931;28;45347;-65
2024/02/24 10:58:43;;;;;;;;;4.00;4.00;;;;;9.48;64.79;99486.72;5076613;28;45871;-64
2024/02/24 11:01:08;;;;;;;;;4.00;2.50;;;;;9.57;64.72;99490.69;5068076;28;73772;-63
2024/02/24 11:03:34;;;;;;;;;5.50;1.50;;;;;9.66;64.33;99492.91;5065912;28;46516;-63
2024/02/24 11:06:01;;;;;;;;;3.75;2.00;;;;;9.66;64.23;99493.75;5061055;28;45447;-64
2024/02/24 11:08:37;;;;;;;;;2.00;2.00;;;;;9.67;63.70;99489.41;5071751;28;45840;-60
2024/02/24 11:11:10;;;;;;;;;2.25;2.00;;;;;9.64;63.50;99486.91;5063690;28;46341;-62
2024/02/24 11:13:36;;;;;;;;;6.25;2.00;;;;;9.63;63.47;99499.13;5069026;28;45425;-63
2024/02/24 11:16:04;;;;;;;;;1.00;1.00;;;;;9.57;62.64;99499.38;5067824;27;45336;-64
2024/02/24 11:18:47;;;;;;;;;3.25;2.00;;;;;9.47;62.72;99505.91;5060999;28;45403;-63
2024/02/24 11:21:16;;;;;;;;;4.00;2.25;;;;;9.43;62.84;99497.34;5060775;28;45454;-62
2024/02/24 11:23:45;;;;;;;;;4.75;3.00;;;;;9.46;62.83;99493.78;5059394;28;45290;-62
2024/02/24 11:26:10;;;;;;;;;6.25;2.50;;;;;9.47;62.62;99487.63;5075762;28;45446;-62
2024/02/24 11:28:36;;;;;;;;;2.00;2.00;;;;;9.45;62.52;99490.28;5068459;28;45371;-63
2024/02/24 11:31:02;;;;;;;;;3.00;3.00;;;;;9.50;63.08;99479.66;5073066;28;45432;-69
2024/02/24 11:33:29;;;;;;;;;2.00;2.00;;;;;9.58;63.05;99484.53;5069875;28;45295;-64